sensor_id;sensor_type;location;lat;lon;timestamp;P1;durP1;ratioP1;P2;durP2;ratioP2
10985;SDS011;5546;48.714;8.738;2022-08-24T00:00:53;3.73;;;3.33;;
10985;SDS011;5546;48.714;8.738;2022-08-24T00:03:19;8.03;;;3.60;;
10985;SDS011;5546;48.714;8.738;2022-08-24T00:05:45;4.83;;;3.83;;
10985;SDS011;5546;48.714;8.738;2022-08-24T00:08:11;4.30;;;3.53;;
10985;SDS011;5546;48.714;8.738;2022-08-24T00:10:36;4.03;;;3.70;;
10985;SDS011;5546;48.714;8.738;2022-08-24T00:13:04;5.47;;;3.67;;
10985;SDS011;5546;48.714;8.738;2022-08-24T00:15:30;4.40;;;3.93;;
10985;SDS011;5546;48.714;8.738;2022-08-24T00:17:59;4.53;;;3.70;;
10985;SDS011;5546;48.714;8.738;2022-08-24T00:20:25;5.13;;;3.57;;
10985;SDS011;5546;48.714;8.738;2022-08-24T00:22:51;4.77;;;4.00;;
10985;SDS011;5546;48.714;8.738;2022-08-24T00:25:16;7.10;;;3.73;;
10985;SDS011;5546;48.714;8.738;2022-08-24T00:27:44;3.77;;;3.40;;
10985;SDS011;5546;48.714;8.738;2022-08-24T00:30:11;4.87;;;3.70;;
10985;SDS011;5546;48.714;8.738;2022-08-24T00:32:42;3.97;;;3.50;;
10985;SDS011;5546;48.714;8.738;2022-08-24T00:35:09;5.43;;;4.00;;
10985;SDS011;5546;48.714;8.738;2022-08-24T00:37:37;4.83;;;3.73;;
10985;SDS011;5546;48.714;8.738;2022-08-24T00:40:04;4.83;;;4.07;;
10985;SDS011;5546;48.714;8.738;2022-08-24T00:42:35;6.87;;;4.40;;
10985;SDS011;5546;48.714;8.738;2022-08-24T00:45:01;4.43;;;4.00;;
10985;SDS011;5546;48.714;8.738;2022-08-24T00:47:28;4.90;;;4.40;;
10985;SDS011;5546;48.714;8.738;2022-08-24T00:50:06;5.20;;;4.00;;
10985;SDS011;5546;48.714;8.738;2022-08-24T00:52:34;4.47;;;3.70;;
10985;SDS011;5546;48.714;8.738;2022-08-24T00:55:06;5.17;;;4.00;;
10985;SDS011;5546;48.714;8.738;2022-08-24T00:57:36;7.57;;;4.33;;
10985;SDS011;5546;48.714;8.738;2022-08-24T01:00:08;6.90;;;4.20;;
10985;SDS011;5546;48.714;8.738;2022-08-24T01:02:37;4.23;;;3.83;;
10985;SDS011;5546;48.714;8.738;2022-08-24T01:05:08;5.17;;;4.33;;
10985;SDS011;5546;48.714;8.738;2022-08-24T01:07:35;6.93;;;4.37;;
10985;SDS011;5546;48.714;8.738;2022-08-24T01:10:04;4.53;;;3.87;;
10985;SDS011;5546;48.714;8.738;2022-08-24T01:12:34;5.57;;;4.10;;
10985;SDS011;5546;48.714;8.738;2022-08-24T01:15:03;4.90;;;4.00;;
10985;SDS011;5546;48.714;8.738;2022-08-24T01:17:31;4.67;;;4.00;;
10985;SDS011;5546;48.714;8.738;2022-08-24T01:20:17;6.57;;;4.07;;
10985;SDS011;5546;48.714;8.738;2022-08-24T01:22:49;5.13;;;3.97;;
10985;SDS011;5546;48.714;8.738;2022-08-24T01:25:20;5.50;;;4.27;;
10985;SDS011;5546;48.714;8.738;2022-08-24T01:27:48;6.37;;;4.40;;
10985;SDS011;5546;48.714;8.738;2022-08-24T01:30:16;4.83;;;4.10;;
10985;SDS011;5546;48.714;8.738;2022-08-24T01:32:51;5.03;;;4.33;;
10985;SDS011;5546;48.714;8.738;2022-08-24T01:35:21;5.47;;;4.80;;
10985;SDS011;5546;48.714;8.738;2022-08-24T01:37:47;6.93;;;4.53;;
10985;SDS011;5546;48.714;8.738;2022-08-24T01:40:13;4.50;;;4.10;;
10985;SDS011;5546;48.714;8.738;2022-08-24T01:42:40;6.10;;;4.70;;
10985;SDS011;5546;48.714;8.738;2022-08-24T01:45:12;5.20;;;4.37;;
10985;SDS011;5546;48.714;8.738;2022-08-24T01:47:37;4.60;;;4.20;;
10985;SDS011;5546;48.714;8.738;2022-08-24T01:50:03;4.87;;;4.20;;
10985;SDS011;5546;48.714;8.738;2022-08-24T01:52:29;4.97;;;4.40;;
10985;SDS011;5546;48.714;8.738;2022-08-24T01:54:54;5.97;;;4.50;;
10985;SDS011;5546;48.714;8.738;2022-08-24T01:57:23;4.63;;;4.23;;
10985;SDS011;5546;48.714;8.738;2022-08-24T01:59:49;7.10;;;4.60;;
10985;SDS011;5546;48.714;8.738;2022-08-24T02:02:17;5.37;;;4.87;;
10985;SDS011;5546;48.714;8.738;2022-08-24T02:04:46;4.83;;;4.23;;
10985;SDS011;5546;48.714;8.738;2022-08-24T02:07:12;5.30;;;4.63;;
10985;SDS011;5546;48.714;8.738;2022-08-24T02:09:37;5.37;;;4.63;;
10985;SDS011;5546;48.714;8.738;2022-08-24T02:12:04;6.70;;;4.70;;
10985;SDS011;5546;48.714;8.738;2022-08-24T02:14:30;5.53;;;4.90;;
10985;SDS011;5546;48.714;8.738;2022-08-24T02:16:56;4.80;;;4.40;;
10985;SDS011;5546;48.714;8.738;2022-08-24T02:19:22;4.80;;;4.40;;
10985;SDS011;5546;48.714;8.738;2022-08-24T02:21:49;5.73;;;4.40;;
10985;SDS011;5546;48.714;8.738;2022-08-24T02:24:14;5.53;;;4.47;;
10985;SDS011;5546;48.714;8.738;2022-08-24T02:26:40;5.00;;;4.50;;
10985;SDS011;5546;48.714;8.738;2022-08-24T02:29:06;4.83;;;4.27;;
10985;SDS011;5546;48.714;8.738;2022-08-24T02:31:32;5.47;;;5.03;;
10985;SDS011;5546;48.714;8.738;2022-08-24T02:33:57;7.07;;;4.80;;
10985;SDS011;5546;48.714;8.738;2022-08-24T02:36:23;4.40;;;4.00;;
10985;SDS011;5546;48.714;8.738;2022-08-24T02:38:49;6.20;;;4.60;;
10985;SDS011;5546;48.714;8.738;2022-08-24T02:41:15;5.00;;;4.50;;
10985;SDS011;5546;48.714;8.738;2022-08-24T02:43:40;5.33;;;4.80;;
10985;SDS011;5546;48.714;8.738;2022-08-24T02:46:06;6.27;;;4.80;;
10985;SDS011;5546;48.714;8.738;2022-08-24T02:48:32;6.53;;;4.60;;
10985;SDS011;5546;48.714;8.738;2022-08-24T02:50:58;6.00;;;4.83;;
10985;SDS011;5546;48.714;8.738;2022-08-24T02:53:24;4.57;;;4.10;;
10985;SDS011;5546;48.714;8.738;2022-08-24T02:55:49;5.37;;;4.87;;
10985;SDS011;5546;48.714;8.738;2022-08-24T02:58:15;4.77;;;4.37;;
10985;SDS011;5546;48.714;8.738;2022-08-24T03:00:43;4.93;;;4.53;;
10985;SDS011;5546;48.714;8.738;2022-08-24T03:03:12;5.93;;;4.57;;
10985;SDS011;5546;48.714;8.738;2022-08-24T03:05:37;5.57;;;4.27;;
10985;SDS011;5546;48.714;8.738;2022-08-24T03:08:03;6.07;;;4.40;;
10985;SDS011;5546;48.714;8.738;2022-08-24T03:10:29;5.57;;;4.40;;
10985;SDS011;5546;48.714;8.738;2022-08-24T03:12:56;4.90;;;4.43;;
10985;SDS011;5546;48.714;8.738;2022-08-24T03:15:23;4.90;;;4.50;;
10985;SDS011;5546;48.714;8.738;2022-08-24T03:17:49;5.17;;;4.63;;
10985;SDS011;5546;48.714;8.738;2022-08-24T03:20:16;5.80;;;4.90;;
10985;SDS011;5546;48.714;8.738;2022-08-24T03:22:45;5.30;;;4.80;;
10985;SDS011;5546;48.714;8.738;2022-08-24T03:25:10;5.17;;;4.77;;
10985;SDS011;5546;48.714;8.738;2022-08-24T03:27:37;5.17;;;4.63;;
10985;SDS011;5546;48.714;8.738;2022-08-24T03:30:04;5.30;;;4.60;;
10985;SDS011;5546;48.714;8.738;2022-08-24T03:32:31;5.20;;;4.80;;
10985;SDS011;5546;48.714;8.738;2022-08-24T03:34:57;5.20;;;4.70;;
10985;SDS011;5546;48.714;8.738;2022-08-24T03:37:22;6.03;;;5.03;;
10985;SDS011;5546;48.714;8.738;2022-08-24T03:39:49;7.37;;;4.97;;
10985;SDS011;5546;48.714;8.738;2022-08-24T03:42:15;5.50;;;5.00;;
10985;SDS011;5546;48.714;8.738;2022-08-24T03:44:41;5.60;;;5.10;;
10985;SDS011;5546;48.714;8.738;2022-08-24T03:47:07;5.83;;;5.33;;
10985;SDS011;5546;48.714;8.738;2022-08-24T03:49:35;5.43;;;4.93;;
10985;SDS011;5546;48.714;8.738;2022-08-24T03:52:01;6.13;;;4.93;;
10985;SDS011;5546;48.714;8.738;2022-08-24T03:54:27;5.90;;;5.40;;
10985;SDS011;5546;48.714;8.738;2022-08-24T03:56:53;6.60;;;4.93;;
10985;SDS011;5546;48.714;8.738;2022-08-24T03:59:18;5.60;;;4.90;;
10985;SDS011;5546;48.714;8.738;2022-08-24T04:01:44;5.60;;;5.10;;
10985;SDS011;5546;48.714;8.738;2022-08-24T04:04:09;6.70;;;5.17;;
10985;SDS011;5546;48.714;8.738;2022-08-24T04:06:35;6.13;;;5.53;;
10985;SDS011;5546;48.714;8.738;2022-08-24T04:09:02;6.77;;;5.57;;
10985;SDS011;5546;48.714;8.738;2022-08-24T04:11:28;5.80;;;5.20;;
10985;SDS011;5546;48.714;8.738;2022-08-24T04:13:55;6.63;;;5.40;;
10985;SDS011;5546;48.714;8.738;2022-08-24T04:16:22;4.80;;;4.40;;
10985;SDS011;5546;48.714;8.738;2022-08-24T04:18:48;6.07;;;5.00;;
10985;SDS011;5546;48.714;8.738;2022-08-24T04:21:21;6.73;;;5.50;;
10985;SDS011;5546;48.714;8.738;2022-08-24T04:23:47;5.70;;;5.10;;
10985;SDS011;5546;48.714;8.738;2022-08-24T04:26:14;5.93;;;5.33;;
10985;SDS011;5546;48.714;8.738;2022-08-24T04:28:40;6.20;;;5.03;;
10985;SDS011;5546;48.714;8.738;2022-08-24T04:31:06;5.63;;;5.10;;
10985;SDS011;5546;48.714;8.738;2022-08-24T04:33:31;5.47;;;4.93;;
10985;SDS011;5546;48.714;8.738;2022-08-24T04:35:57;5.60;;;5.10;;
10985;SDS011;5546;48.714;8.738;2022-08-24T04:38:23;7.00;;;5.37;;
10985;SDS011;5546;48.714;8.738;2022-08-24T04:40:49;5.93;;;5.33;;
10985;SDS011;5546;48.714;8.738;2022-08-24T04:43:15;5.37;;;4.87;;
10985;SDS011;5546;48.714;8.738;2022-08-24T04:45:42;6.10;;;5.47;;
10985;SDS011;5546;48.714;8.738;2022-08-24T04:48:09;6.10;;;5.47;;
10985;SDS011;5546;48.714;8.738;2022-08-24T04:50:37;5.30;;;4.80;;
10985;SDS011;5546;48.714;8.738;2022-08-24T04:53:03;5.80;;;5.00;;
10985;SDS011;5546;48.714;8.738;2022-08-24T04:55:30;5.50;;;5.00;;
10985;SDS011;5546;48.714;8.738;2022-08-24T04:57:57;5.47;;;4.87;;
10985;SDS011;5546;48.714;8.738;2022-08-24T05:00:22;5.30;;;4.80;;
10985;SDS011;5546;48.714;8.738;2022-08-24T05:02:48;5.33;;;4.80;;
10985;SDS011;5546;48.714;8.738;2022-08-24T05:05:13;5.63;;;5.23;;
10985;SDS011;5546;48.714;8.738;2022-08-24T05:07:39;5.33;;;4.93;;
10985;SDS011;5546;48.714;8.738;2022-08-24T05:10:05;6.03;;;5.53;;
10985;SDS011;5546;48.714;8.738;2022-08-24T05:12:32;5.93;;;5.33;;
10985;SDS011;5546;48.714;8.738;2022-08-24T05:14:58;5.37;;;4.73;;
10985;SDS011;5546;48.714;8.738;2022-08-24T05:17:24;5.57;;;4.93;;
10985;SDS011;5546;48.714;8.738;2022-08-24T05:19:50;6.20;;;4.60;;
10985;SDS011;5546;48.714;8.738;2022-08-24T05:22:17;5.00;;;4.43;;
10985;SDS011;5546;48.714;8.738;2022-08-24T05:24:43;6.37;;;4.00;;
10985;SDS011;5546;48.714;8.738;2022-08-24T05:27:09;5.67;;;5.07;;
10985;SDS011;5546;48.714;8.738;2022-08-24T05:29:34;4.90;;;4.37;;
10985;SDS011;5546;48.714;8.738;2022-08-24T05:32:01;5.90;;;4.67;;
10985;SDS011;5546;48.714;8.738;2022-08-24T05:34:27;4.53;;;3.90;;
10985;SDS011;5546;48.714;8.738;2022-08-24T05:36:52;7.50;;;4.10;;
10985;SDS011;5546;48.714;8.738;2022-08-24T05:39:18;4.93;;;4.43;;
10985;SDS011;5546;48.714;8.738;2022-08-24T05:41:44;4.33;;;3.70;;
10985;SDS011;5546;48.714;8.738;2022-08-24T05:44:12;4.20;;;3.80;;
10985;SDS011;5546;48.714;8.738;2022-08-24T05:46:39;6.40;;;3.93;;
10985;SDS011;5546;48.714;8.738;2022-08-24T05:49:04;4.80;;;4.40;;
10985;SDS011;5546;48.714;8.738;2022-08-24T05:51:30;8.30;;;4.73;;
10985;SDS011;5546;48.714;8.738;2022-08-24T05:53:56;8.97;;;5.07;;
10985;SDS011;5546;48.714;8.738;2022-08-24T05:56:22;6.70;;;4.67;;
10985;SDS011;5546;48.714;8.738;2022-08-24T05:58:47;5.93;;;4.40;;
10985;SDS011;5546;48.714;8.738;2022-08-24T06:01:17;4.87;;;4.23;;
10985;SDS011;5546;48.714;8.738;2022-08-24T06:03:45;4.50;;;3.60;;
10985;SDS011;5546;48.714;8.738;2022-08-24T06:06:11;5.17;;;3.67;;
10985;SDS011;5546;48.714;8.738;2022-08-24T06:08:38;3.43;;;3.23;;
10985;SDS011;5546;48.714;8.738;2022-08-24T06:11:05;4.00;;;3.57;;
10985;SDS011;5546;48.714;8.738;2022-08-24T06:13:31;4.07;;;3.67;;
10985;SDS011;5546;48.714;8.738;2022-08-24T06:16:15;4.60;;;3.90;;
10985;SDS011;5546;48.714;8.738;2022-08-24T06:18:41;4.05;;;3.65;;
10985;SDS011;5546;48.714;8.738;2022-08-24T06:21:08;4.00;;;3.60;;
10985;SDS011;5546;48.714;8.738;2022-08-24T06:23:36;5.05;;;3.50;;
10985;SDS011;5546;48.714;8.738;2022-08-24T06:26:03;3.53;;;3.15;;
10985;SDS011;5546;48.714;8.738;2022-08-24T06:28:49;4.13;;;3.72;;
10985;SDS011;5546;48.714;8.738;2022-08-24T06:31:16;4.28;;;3.67;;
10985;SDS011;5546;48.714;8.738;2022-08-24T06:33:41;3.58;;;3.28;;
10985;SDS011;5546;48.714;8.738;2022-08-24T06:36:07;5.88;;;3.85;;
10985;SDS011;5546;48.714;8.738;2022-08-24T06:38:33;3.78;;;3.40;;
10985;SDS011;5546;48.714;8.738;2022-08-24T06:40:58;4.60;;;3.72;;
10985;SDS011;5546;48.714;8.738;2022-08-24T06:43:24;4.03;;;3.50;;
10985;SDS011;5546;48.714;8.738;2022-08-24T06:45:50;4.20;;;3.83;;
10985;SDS011;5546;48.714;8.738;2022-08-24T06:48:17;4.05;;;3.75;;
10985;SDS011;5546;48.714;8.738;2022-08-24T06:50:43;4.88;;;3.70;;
10985;SDS011;5546;48.714;8.738;2022-08-24T06:53:09;4.65;;;3.30;;
10985;SDS011;5546;48.714;8.738;2022-08-24T06:55:42;4.45;;;3.80;;
10985;SDS011;5546;48.714;8.738;2022-08-24T06:58:09;4.00;;;3.70;;
10985;SDS011;5546;48.714;8.738;2022-08-24T07:00:35;4.03;;;3.72;;
10985;SDS011;5546;48.714;8.738;2022-08-24T07:03:01;3.70;;;3.35;;
10985;SDS011;5546;48.714;8.738;2022-08-24T07:05:27;6.07;;;4.18;;
10985;SDS011;5546;48.714;8.738;2022-08-24T07:07:53;6.88;;;3.97;;
10985;SDS011;5546;48.714;8.738;2022-08-24T07:10:18;5.20;;;4.00;;
10985;SDS011;5546;48.714;8.738;2022-08-24T07:12:44;6.05;;;4.03;;
10985;SDS011;5546;48.714;8.738;2022-08-24T07:15:10;3.67;;;3.38;;
10985;SDS011;5546;48.714;8.738;2022-08-24T07:17:36;4.03;;;3.72;;
10985;SDS011;5546;48.714;8.738;2022-08-24T07:20:02;5.65;;;3.67;;
10985;SDS011;5546;48.714;8.738;2022-08-24T07:22:27;4.05;;;3.75;;
10985;SDS011;5546;48.714;8.738;2022-08-24T07:24:53;4.25;;;3.90;;
10985;SDS011;5546;48.714;8.738;2022-08-24T07:27:19;4.43;;;3.75;;
10985;SDS011;5546;48.714;8.738;2022-08-24T07:29:45;4.60;;;3.58;;
10985;SDS011;5546;48.714;8.738;2022-08-24T07:32:10;4.78;;;3.70;;
10985;SDS011;5546;48.714;8.738;2022-08-24T07:34:36;5.07;;;4.18;;
10985;SDS011;5546;48.714;8.738;2022-08-24T07:37:02;4.68;;;3.80;;
10985;SDS011;5546;48.714;8.738;2022-08-24T07:39:28;4.22;;;3.65;;
10985;SDS011;5546;48.714;8.738;2022-08-24T07:41:54;6.90;;;4.50;;
10985;SDS011;5546;48.714;8.738;2022-08-24T07:44:21;5.97;;;4.15;;
10985;SDS011;5546;48.714;8.738;2022-08-24T07:46:47;8.32;;;4.38;;
10985;SDS011;5546;48.714;8.738;2022-08-24T07:49:13;6.82;;;3.92;;
10985;SDS011;5546;48.714;8.738;2022-08-24T07:51:38;5.60;;;3.95;;
10985;SDS011;5546;48.714;8.738;2022-08-24T07:54:04;7.85;;;4.18;;
10985;SDS011;5546;48.714;8.738;2022-08-24T07:56:30;5.13;;;4.10;;
10985;SDS011;5546;48.714;8.738;2022-08-24T07:58:56;7.35;;;3.45;;
10985;SDS011;5546;48.714;8.738;2022-08-24T08:01:22;12.13;;;10.95;;
10985;SDS011;5546;48.714;8.738;2022-08-24T08:03:48;6.00;;;4.05;;
10985;SDS011;5546;48.714;8.738;2022-08-24T08:06:15;6.43;;;4.05;;
10985;SDS011;5546;48.714;8.738;2022-08-24T08:08:41;5.10;;;3.60;;
10985;SDS011;5546;48.714;8.738;2022-08-24T08:11:07;4.45;;;3.85;;
10985;SDS011;5546;48.714;8.738;2022-08-24T08:13:34;3.83;;;3.50;;
10985;SDS011;5546;48.714;8.738;2022-08-24T08:16:01;5.60;;;3.42;;
10985;SDS011;5546;48.714;8.738;2022-08-24T08:18:28;4.03;;;3.65;;
10985;SDS011;5546;48.714;8.738;2022-08-24T08:20:54;4.05;;;3.63;;
10985;SDS011;5546;48.714;8.738;2022-08-24T08:23:20;6.45;;;3.80;;
10985;SDS011;5546;48.714;8.738;2022-08-24T08:26:05;4.13;;;3.70;;
10985;SDS011;5546;48.714;8.738;2022-08-24T08:28:32;4.90;;;3.88;;
10985;SDS011;5546;48.714;8.738;2022-08-24T08:31:01;4.03;;;3.63;;
10985;SDS011;5546;48.714;8.738;2022-08-24T08:33:28;4.15;;;3.42;;
10985;SDS011;5546;48.714;8.738;2022-08-24T08:35:55;4.05;;;3.75;;
10985;SDS011;5546;48.714;8.738;2022-08-24T08:38:31;3.72;;;3.35;;
10985;SDS011;5546;48.714;8.738;2022-08-24T08:43:41;5.28;;;3.30;;
10985;SDS011;5546;48.714;8.738;2022-08-24T08:46:14;5.18;;;3.20;;
10985;SDS011;5546;48.714;8.738;2022-08-24T08:54:39;5.28;;;3.05;;
10985;SDS011;5546;48.714;8.738;2022-08-24T09:05:58;2.95;;;2.65;;
10985;SDS011;5546;48.714;8.738;2022-08-24T09:11:49;5.20;;;2.20;;
10985;SDS011;5546;48.714;8.738;2022-08-24T09:22:59;3.88;;;2.10;;
10985;SDS011;5546;48.714;8.738;2022-08-24T09:25:47;2.40;;;2.03;;
10985;SDS011;5546;48.714;8.738;2022-08-24T09:33:44;2.85;;;1.92;;
10985;SDS011;5546;48.714;8.738;2022-08-24T09:36:31;3.10;;;1.80;;
10985;SDS011;5546;48.714;8.738;2022-08-24T09:50:24;3.22;;;1.98;;
10985;SDS011;5546;48.714;8.738;2022-08-24T10:04:10;3.03;;;2.00;;
10985;SDS011;5546;48.714;8.738;2022-08-24T10:17:09;3.33;;;2.08;;
10985;SDS011;5546;48.714;8.738;2022-08-24T10:22:11;6.82;;;2.22;;
10985;SDS011;5546;48.714;8.738;2022-08-24T10:27:45;3.75;;;2.13;;
10985;SDS011;5546;48.714;8.738;2022-08-24T10:48:19;2.15;;;1.90;;
10985;SDS011;5546;48.714;8.738;2022-08-24T10:53:24;3.65;;;2.10;;
10985;SDS011;5546;48.714;8.738;2022-08-24T10:56:10;3.83;;;2.17;;
10985;SDS011;5546;48.714;8.738;2022-08-24T11:04:12;3.03;;;2.10;;
10985;SDS011;5546;48.714;8.738;2022-08-24T11:09:04;2.70;;;2.05;;
10985;SDS011;5546;48.714;8.738;2022-08-24T11:11:35;4.55;;;1.80;;
10985;SDS011;5546;48.714;8.738;2022-08-24T11:16:49;3.83;;;2.10;;
10985;SDS011;5546;48.714;8.738;2022-08-24T11:21:52;3.38;;;2.03;;
10985;SDS011;5546;48.714;8.738;2022-08-24T11:24:25;4.10;;;2.03;;
10985;SDS011;5546;48.714;8.738;2022-08-24T11:34:51;5.75;;;2.22;;
10985;SDS011;5546;48.714;8.738;2022-08-24T11:37:18;3.35;;;2.10;;
10985;SDS011;5546;48.714;8.738;2022-08-24T11:39:47;2.30;;;1.88;;
10985;SDS011;5546;48.714;8.738;2022-08-24T11:42:16;4.07;;;2.10;;
10985;SDS011;5546;48.714;8.738;2022-08-24T11:45:09;3.38;;;2.10;;
10985;SDS011;5546;48.714;8.738;2022-08-24T11:53:18;4.00;;;2.20;;
10985;SDS011;5546;48.714;8.738;2022-08-24T11:56:00;2.85;;;2.00;;
10985;SDS011;5546;48.714;8.738;2022-08-24T12:01:38;2.83;;;1.88;;
10985;SDS011;5546;48.714;8.738;2022-08-24T12:04:16;2.97;;;1.80;;
10985;SDS011;5546;48.714;8.738;2022-08-24T12:09:30;3.63;;;2.17;;
10985;SDS011;5546;48.714;8.738;2022-08-24T12:14:44;4.07;;;2.20;;
10985;SDS011;5546;48.714;8.738;2022-08-24T12:19:48;3.03;;;2.10;;
10985;SDS011;5546;48.714;8.738;2022-08-24T12:22:19;8.13;;;2.63;;
10985;SDS011;5546;48.714;8.738;2022-08-24T12:24:50;2.70;;;2.47;;
10985;SDS011;5546;48.714;8.738;2022-08-24T12:27:31;3.75;;;2.10;;
10985;SDS011;5546;48.714;8.738;2022-08-24T12:30:10;4.20;;;2.00;;
10985;SDS011;5546;48.714;8.738;2022-08-24T12:32:39;2.78;;;2.10;;
10985;SDS011;5546;48.714;8.738;2022-08-24T12:35:08;2.17;;;1.98;;
10985;SDS011;5546;48.714;8.738;2022-08-24T12:37:44;5.10;;;2.10;;
10985;SDS011;5546;48.714;8.738;2022-08-24T12:42:55;2.30;;;1.80;;
10985;SDS011;5546;48.714;8.738;2022-08-24T12:45:34;3.50;;;1.70;;
10985;SDS011;5546;48.714;8.738;2022-08-24T12:48:05;2.53;;;1.77;;
10985;SDS011;5546;48.714;8.738;2022-08-24T12:53:36;1.70;;;1.60;;
10985;SDS011;5546;48.714;8.738;2022-08-24T12:59:25;3.92;;;1.63;;
10985;SDS011;5546;48.714;8.738;2022-08-24T13:01:59;3.88;;;1.83;;
10985;SDS011;5546;48.714;8.738;2022-08-24T13:10:09;1.60;;;1.50;;
10985;SDS011;5546;48.714;8.738;2022-08-24T13:17:47;2.55;;;1.80;;
10985;SDS011;5546;48.714;8.738;2022-08-24T13:28:51;2.22;;;2.03;;
10985;SDS011;5546;48.714;8.738;2022-08-24T13:31:26;2.80;;;1.80;;
10985;SDS011;5546;48.714;8.738;2022-08-24T13:33:57;2.35;;;1.75;;
10985;SDS011;5546;48.714;8.738;2022-08-24T13:38:57;2.53;;;1.77;;
10985;SDS011;5546;48.714;8.738;2022-08-24T13:47:03;4.28;;;1.85;;
10985;SDS011;5546;48.714;8.738;2022-08-24T13:55:05;1.70;;;1.60;;
10985;SDS011;5546;48.714;8.738;2022-08-24T14:01:02;2.35;;;1.60;;
10985;SDS011;5546;48.714;8.738;2022-08-24T14:03:54;2.20;;;1.50;;
10985;SDS011;5546;48.714;8.738;2022-08-24T14:06:34;5.38;;;1.70;;
10985;SDS011;5546;48.714;8.738;2022-08-24T14:12:04;1.90;;;1.50;;
10985;SDS011;5546;48.714;8.738;2022-08-24T14:17:35;4.15;;;3.85;;
10985;SDS011;5546;48.714;8.738;2022-08-24T14:23:08;2.75;;;1.80;;
10985;SDS011;5546;48.714;8.738;2022-08-24T14:25:40;1.90;;;1.80;;
10985;SDS011;5546;48.714;8.738;2022-08-24T14:31:12;2.65;;;1.48;;
10985;SDS011;5546;48.714;8.738;2022-08-24T14:33:50;3.03;;;1.60;;
10985;SDS011;5546;48.714;8.738;2022-08-24T14:36:20;3.35;;;1.60;;
10985;SDS011;5546;48.714;8.738;2022-08-24T14:39:07;1.90;;;1.60;;
10985;SDS011;5546;48.714;8.738;2022-08-24T14:42:01;2.42;;;1.67;;
10985;SDS011;5546;48.714;8.738;2022-08-24T14:47:30;2.13;;;1.50;;
10985;SDS011;5546;48.714;8.738;2022-08-24T14:50:21;1.77;;;1.52;;
10985;SDS011;5546;48.714;8.738;2022-08-24T14:56:10;1.65;;;1.55;;
10985;SDS011;5546;48.714;8.738;2022-08-24T14:58:51;1.85;;;1.60;;
10985;SDS011;5546;48.714;8.738;2022-08-24T15:01:39;1.88;;;1.63;;
10985;SDS011;5546;48.714;8.738;2022-08-24T15:07:29;2.28;;;2.08;;
10985;SDS011;5546;48.714;8.738;2022-08-24T15:09:57;2.03;;;1.75;;
10985;SDS011;5546;48.714;8.738;2022-08-24T15:12:44;1.75;;;1.65;;
10985;SDS011;5546;48.714;8.738;2022-08-24T15:15:23;3.17;;;1.90;;
10985;SDS011;5546;48.714;8.738;2022-08-24T15:21:01;2.00;;;1.73;;
10985;SDS011;5546;48.714;8.738;2022-08-24T15:26:07;4.53;;;2.00;;
10985;SDS011;5546;48.714;8.738;2022-08-24T15:28:47;1.98;;;1.80;;
10985;SDS011;5546;48.714;8.738;2022-08-24T15:31:18;1.65;;;1.55;;
10985;SDS011;5546;48.714;8.738;2022-08-24T15:36:26;1.80;;;1.70;;
10985;SDS011;5546;48.714;8.738;2022-08-24T15:38:54;1.90;;;1.80;;
10985;SDS011;5546;48.714;8.738;2022-08-24T15:41:22;1.70;;;1.60;;
10985;SDS011;5546;48.714;8.738;2022-08-24T15:43:56;2.53;;;2.10;;
10985;SDS011;5546;48.714;8.738;2022-08-24T15:46:26;3.65;;;1.80;;
10985;SDS011;5546;48.714;8.738;2022-08-24T15:49:00;2.28;;;1.80;;
10985;SDS011;5546;48.714;8.738;2022-08-24T16:18:21;2.67;;;2.47;;
10985;SDS011;5546;48.714;8.738;2022-08-24T16:20:47;3.83;;;3.20;;
10985;SDS011;5546;48.714;8.738;2022-08-24T16:23:23;3.40;;;2.30;;
10985;SDS011;5546;48.714;8.738;2022-08-24T16:26:16;2.03;;;1.80;;
10985;SDS011;5546;48.714;8.738;2022-08-24T16:28:45;4.45;;;4.13;;
10985;SDS011;5546;48.714;8.738;2022-08-24T16:31:11;2.47;;;1.83;;
10985;SDS011;5546;48.714;8.738;2022-08-24T16:34:07;2.38;;;2.17;;
10985;SDS011;5546;48.714;8.738;2022-08-24T16:36:41;2.08;;;1.95;;
10985;SDS011;5546;48.714;8.738;2022-08-24T16:39:06;2.92;;;1.80;;
10985;SDS011;5546;48.714;8.738;2022-08-24T16:41:35;2.55;;;1.98;;
10985;SDS011;5546;48.714;8.738;2022-08-24T16:44:02;2.40;;;1.90;;
10985;SDS011;5546;48.714;8.738;2022-08-24T16:46:28;2.30;;;2.10;;
10985;SDS011;5546;48.714;8.738;2022-08-24T16:48:53;2.85;;;2.10;;
10985;SDS011;5546;48.714;8.738;2022-08-24T16:51:19;2.47;;;2.00;;
10985;SDS011;5546;48.714;8.738;2022-08-24T16:53:48;2.95;;;1.80;;
10985;SDS011;5546;48.714;8.738;2022-08-24T16:56:14;2.08;;;1.88;;
10985;SDS011;5546;48.714;8.738;2022-08-24T16:58:40;5.57;;;2.20;;
10985;SDS011;5546;48.714;8.738;2022-08-24T17:01:06;5.82;;;2.30;;
10985;SDS011;5546;48.714;8.738;2022-08-24T17:03:31;4.30;;;2.05;;
10985;SDS011;5546;48.714;8.738;2022-08-24T17:05:57;4.32;;;2.05;;
10985;SDS011;5546;48.714;8.738;2022-08-24T17:08:23;2.20;;;2.00;;
10985;SDS011;5546;48.714;8.738;2022-08-24T17:10:50;3.28;;;2.00;;
10985;SDS011;5546;48.714;8.738;2022-08-24T17:13:17;2.22;;;1.85;;
10985;SDS011;5546;48.714;8.738;2022-08-24T17:15:44;3.05;;;1.90;;
10985;SDS011;5546;48.714;8.738;2022-08-24T17:18:10;3.20;;;2.40;;
10985;SDS011;5546;48.714;8.738;2022-08-24T17:20:37;3.08;;;2.58;;
10985;SDS011;5546;48.714;8.738;2022-08-24T17:23:02;3.38;;;2.00;;
10985;SDS011;5546;48.714;8.738;2022-08-24T17:25:28;3.15;;;2.40;;
10985;SDS011;5546;48.714;8.738;2022-08-24T17:27:55;4.75;;;4.35;;
10985;SDS011;5546;48.714;8.738;2022-08-24T17:30:22;2.83;;;2.13;;
10985;SDS011;5546;48.714;8.738;2022-08-24T17:32:49;2.35;;;2.08;;
10985;SDS011;5546;48.714;8.738;2022-08-24T17:35:16;2.10;;;2.00;;
10985;SDS011;5546;48.714;8.738;2022-08-24T17:37:42;4.03;;;2.10;;
10985;SDS011;5546;48.714;8.738;2022-08-24T17:40:10;2.90;;;1.75;;
10985;SDS011;5546;48.714;8.738;2022-08-24T17:42:38;3.15;;;1.90;;
10985;SDS011;5546;48.714;8.738;2022-08-24T17:45:04;2.22;;;2.03;;
10985;SDS011;5546;48.714;8.738;2022-08-24T17:47:30;2.25;;;2.05;;
10985;SDS011;5546;48.714;8.738;2022-08-24T17:49:57;3.40;;;1.95;;
10985;SDS011;5546;48.714;8.738;2022-08-24T17:52:23;2.30;;;2.03;;
10985;SDS011;5546;48.714;8.738;2022-08-24T17:54:50;2.15;;;1.77;;
10985;SDS011;5546;48.714;8.738;2022-08-24T17:57:16;3.58;;;1.98;;
10985;SDS011;5546;48.714;8.738;2022-08-24T17:59:42;2.22;;;1.77;;
10985;SDS011;5546;48.714;8.738;2022-08-24T18:02:09;2.75;;;1.88;;
10985;SDS011;5546;48.714;8.738;2022-08-24T18:04:39;4.55;;;1.80;;
10985;SDS011;5546;48.714;8.738;2022-08-24T18:07:07;3.00;;;2.05;;
10985;SDS011;5546;48.714;8.738;2022-08-24T18:09:39;2.20;;;2.00;;
10985;SDS011;5546;48.714;8.738;2022-08-24T18:12:12;2.80;;;2.20;;
10985;SDS011;5546;48.714;8.738;2022-08-24T18:14:43;3.00;;;1.90;;
10985;SDS011;5546;48.714;8.738;2022-08-24T18:17:10;4.35;;;2.20;;
10985;SDS011;5546;48.714;8.738;2022-08-24T18:19:42;2.10;;;1.90;;
10985;SDS011;5546;48.714;8.738;2022-08-24T18:22:09;3.20;;;2.00;;
10985;SDS011;5546;48.714;8.738;2022-08-24T18:24:36;2.25;;;2.05;;
10985;SDS011;5546;48.714;8.738;2022-08-24T18:29:32;5.50;;;2.17;;
10985;SDS011;5546;48.714;8.738;2022-08-24T18:31:58;2.65;;;1.98;;
10985;SDS011;5546;48.714;8.738;2022-08-24T18:34:24;4.20;;;2.10;;
10985;SDS011;5546;48.714;8.738;2022-08-24T18:36:50;3.15;;;1.90;;
10985;SDS011;5546;48.714;8.738;2022-08-24T18:39:18;4.93;;;2.22;;
10985;SDS011;5546;48.714;8.738;2022-08-24T18:41:44;2.38;;;2.03;;
10985;SDS011;5546;48.714;8.738;2022-08-24T18:44:13;2.05;;;1.73;;
10985;SDS011;5546;48.714;8.738;2022-08-24T18:46:46;2.15;;;1.95;;
10985;SDS011;5546;48.714;8.738;2022-08-24T18:49:12;3.05;;;1.90;;
10985;SDS011;5546;48.714;8.738;2022-08-24T18:51:39;2.45;;;2.20;;
10985;SDS011;5546;48.714;8.738;2022-08-24T18:54:07;4.03;;;1.95;;
10985;SDS011;5546;48.714;8.738;2022-08-24T18:56:36;5.15;;;2.10;;
10985;SDS011;5546;48.714;8.738;2022-08-24T18:59:02;2.22;;;2.03;;
10985;SDS011;5546;48.714;8.738;2022-08-24T19:01:29;2.78;;;2.00;;
10985;SDS011;5546;48.714;8.738;2022-08-24T19:04:16;3.63;;;2.10;;
10985;SDS011;5546;48.714;8.738;2022-08-24T19:06:42;3.35;;;1.90;;